Time;durP1;ratioP1;P1;durP2;ratioP2;P2;SDS_P1;SDS_P2;PMS_P1;PMS_P2;Temp;Humidity;BMP_temperature;BMP_pressure;BME280_temperature;BME280_humidity;BME280_pressure;Samples;Min_cycle;Max_cycle;Signal;HPM_P1;HPM_P2
2022/03/23 00:02:19;;;;;;;72.13;37.10;;;;;;;;;;5100884;28;20046;-65
2022/03/23 00:04:45;;;;;;;78.10;36.07;;;;;;;;;;5100541;28;20101;-65
2022/03/23 00:07:11;;;;;;;76.43;38.57;;;;;;;;;;5100368;28;20192;-65
2022/03/23 00:09:37;;;;;;;85.43;38.90;;;;;;;;;;5099336;28;20036;-65
2022/03/23 00:12:03;;;;;;;77.67;37.97;;;;;;;;;;5099473;28;20051;-65
2022/03/23 00:14:29;;;;;;;82.47;40.23;;;;;;;;;;5098618;28;20127;-65
2022/03/23 00:16:55;;;;;;;82.67;37.80;;;;;;;;;;5101009;28;20188;-65
2022/03/23 00:19:21;;;;;;;78.90;39.30;;;;;;;;;;5098042;28;20807;-65
2022/03/23 00:21:47;;;;;;;78.37;38.17;;;;;;;;;;5097839;28;20043;-65
2022/03/23 00:24:13;;;;;;;80.27;40.60;;;;;;;;;;5096650;28;20044;-65
2022/03/23 00:26:39;;;;;;;80.50;39.83;;;;;;;;;;5099968;28;20046;-65
2022/03/23 00:29:06;;;;;;;89.33;41.23;;;;;;;;;;5100893;28;20044;-65
2022/03/23 00:31:32;;;;;;;79.73;38.00;;;;;;;;;;5100846;28;20542;-65
2022/03/23 00:33:58;;;;;;;86.67;39.77;;;;;;;;;;5102048;28;20081;-65
2022/03/23 00:36:24;;;;;;;85.53;40.97;;;;;;;;;;5098132;28;20512;-65
2022/03/23 00:38:53;;;;;;;83.40;40.83;;;;;;;;;;5098754;28;20040;-64
2022/03/23 00:41:20;;;;;;;87.00;38.13;;;;;;;;;;5096742;28;20055;-65
2022/03/23 00:43:46;;;;;;;86.70;40.20;;;;;;;;;;5096918;28;20043;-65
2022/03/23 00:46:12;;;;;;;71.87;37.37;;;;;;;;;;5099957;28;20119;-64
2022/03/23 00:48:38;;;;;;;75.30;37.47;;;;;;;;;;5101744;28;20118;-65
2022/03/23 00:51:04;;;;;;;77.63;38.10;;;;;;;;;;5099817;28;20459;-65
2022/03/23 00:53:31;;;;;;;88.53;42.07;;;;;;;;;;5096732;28;20040;-65
2022/03/23 00:55:57;;;;;;;94.53;41.77;;;;;;;;;;5100590;28;20052;-64
2022/03/23 00:58:23;;;;;;;86.17;39.23;;;;;;;;;;5095937;28;20121;-65
2022/03/23 01:00:49;;;;;;;79.47;40.33;;;;;;;;;;5097288;28;20044;-65
2022/03/23 01:03:16;;;;;;;90.73;41.30;;;;;;;;;;5095943;28;20048;-65
2022/03/23 01:05:42;;;;;;;75.63;39.17;;;;;;;;;;5099380;28;20085;-65
2022/03/23 01:08:08;;;;;;;77.40;38.27;;;;;;;;;;5099771;28;20139;-65
2022/03/23 01:10:34;;;;;;;99.57;44.33;;;;;;;;;;5093642;28;20123;-65
2022/03/23 01:13:00;;;;;;;91.60;41.83;;;;;;;;;;5089780;28;20062;-65
2022/03/23 01:15:26;;;;;;;92.83;43.07;;;;;;;;;;5088458;28;20040;-65
2022/03/23 01:17:52;;;;;;;89.73;41.97;;;;;;;;;;5088682;28;20035;-65
2022/03/23 01:20:19;;;;;;;93.60;43.47;;;;;;;;;;5089188;28;20036;-65
2022/03/23 01:22:46;;;;;;;99.90;43.53;;;;;;;;;;5089149;28;20043;-65
2022/03/23 01:25:13;;;;;;;90.23;42.67;;;;;;;;;;5089492;28;20040;-64
2022/03/23 01:27:39;;;;;;;84.47;39.73;;;;;;;;;;5089203;28;20483;-65
2022/03/23 01:30:06;;;;;;;79.83;40.20;;;;;;;;;;5089228;28;20036;-65
2022/03/23 01:32:33;;;;;;;93.17;43.30;;;;;;;;;;5088362;28;20043;-65
2022/03/23 01:35:00;;;;;;;85.50;42.33;;;;;;;;;;5096098;28;20059;-64
2022/03/23 01:37:26;;;;;;;105.77;43.33;;;;;;;;;;5098787;28;20090;-64
2022/03/23 01:39:51;;;;;;;90.93;44.87;;;;;;;;;;5098650;28;20058;-65
2022/03/23 01:42:18;;;;;;;100.57;42.97;;;;;;;;;;5096019;28;20825;-65
2022/03/23 01:44:44;;;;;;;93.07;39.80;;;;;;;;;;5099586;28;20043;-65
2022/03/23 01:47:11;;;;;;;92.67;40.93;;;;;;;;;;5097646;28;20040;-65
2022/03/23 01:49:43;;;;;;;92.23;44.53;;;;;;;;;;5098905;28;20097;-65
2022/03/23 01:52:11;;;;;;;86.20;43.07;;;;;;;;;;5096739;28;20683;-65
2022/03/23 01:54:37;;;;;;;101.50;43.90;;;;;;;;;;5096538;28;20123;-65
2022/03/23 01:57:04;;;;;;;108.47;44.37;;;;;;;;;;5072484;28;20036;-64
2022/03/23 01:59:30;;;;;;;96.47;43.90;;;;;;;;;;5087662;28;20502;-65
2022/03/23 02:01:57;;;;;;;99.87;44.50;;;;;;;;;;5087712;28;20044;-65
2022/03/23 02:04:23;;;;;;;106.37;45.07;;;;;;;;;;5096239;28;20115;-65
2022/03/23 02:06:49;;;;;;;104.47;45.10;;;;;;;;;;5097840;28;20043;-64
2022/03/23 02:09:16;;;;;;;105.97;45.13;;;;;;;;;;5098123;28;20043;-64
2022/03/23 02:11:42;;;;;;;98.93;46.17;;;;;;;;;;5098801;28;20043;-64
2022/03/23 02:14:09;;;;;;;115.43;49.73;;;;;;;;;;5097588;28;20421;-64
2022/03/23 02:16:39;;;;;;;97.47;44.40;;;;;;;;;;5096475;28;20112;-65
2022/03/23 02:19:05;;;;;;;115.03;47.33;;;;;;;;;;5097423;28;20039;-65
2022/03/23 02:21:32;;;;;;;117.13;46.67;;;;;;;;;;5097854;28;20089;-65
2022/03/23 02:23:58;;;;;;;94.90;41.90;;;;;;;;;;5095632;28;20044;-65
2022/03/23 02:26:26;;;;;;;104.47;45.57;;;;;;;;;;5095999;28;20047;-65
2022/03/23 02:28:53;;;;;;;100.93;45.13;;;;;;;;;;5096137;28;20044;-65
2022/03/23 02:31:19;;;;;;;107.10;46.80;;;;;;;;;;5095990;28;20485;-65
2022/03/23 02:33:45;;;;;;;108.23;48.37;;;;;;;;;;5097390;28;20040;-64
2022/03/23 02:36:11;;;;;;;97.87;44.83;;;;;;;;;;5097486;28;20048;-64
2022/03/23 02:38:37;;;;;;;105.97;47.47;;;;;;;;;;5106344;28;20047;-65
2022/03/23 02:41:03;;;;;;;106.97;47.67;;;;;;;;;;5105744;28;20048;-65
2022/03/23 02:43:30;;;;;;;98.57;43.47;;;;;;;;;;5095638;28;20088;-65
2022/03/23 02:45:55;;;;;;;100.23;43.60;;;;;;;;;;5096987;28;20130;-65
2022/03/23 02:48:22;;;;;;;106.23;44.30;;;;;;;;;;5079592;28;20059;-65
2022/03/23 02:50:48;;;;;;;118.70;45.67;;;;;;;;;;5096069;28;20046;-65
2022/03/23 03:01:54;;;;;;;111.10;46.47;;;;;;;;;;5099496;28;20767;-65
2022/03/23 03:04:21;;;;;;;103.30;44.80;;;;;;;;;;5100444;28;20092;-65
2022/03/23 03:06:47;;;;;;;96.57;44.80;;;;;;;;;;5101515;28;20455;-65
2022/03/23 03:09:14;;;;;;;109.30;47.27;;;;;;;;;;5098493;28;20119;-64
2022/03/23 03:11:43;;;;;;;105.90;47.37;;;;;;;;;;5083531;28;20046;-65
2022/03/23 03:14:09;;;;;;;124.83;50.27;;;;;;;;;;5083318;28;20036;-66
2022/03/23 03:16:35;;;;;;;90.03;41.23;;;;;;;;;;5099739;28;20434;-65
2022/03/23 03:19:01;;;;;;;108.57;47.90;;;;;;;;;;5100143;28;20471;-65
2022/03/23 03:21:27;;;;;;;113.03;47.53;;;;;;;;;;5098333;28;20063;-65
2022/03/23 03:23:53;;;;;;;114.10;47.20;;;;;;;;;;5100932;28;20056;-66
2022/03/23 03:26:19;;;;;;;109.90;44.50;;;;;;;;;;5100147;28;20464;-65
2022/03/23 03:28:46;;;;;;;97.60;42.20;;;;;;;;;;5102267;28;20052;-65
2022/03/23 03:31:13;;;;;;;110.20;44.13;;;;;;;;;;5108034;28;20043;-64
2022/03/23 03:33:39;;;;;;;115.20;46.10;;;;;;;;;;5095000;28;20036;-65
2022/03/23 03:36:06;;;;;;;111.33;45.17;;;;;;;;;;5098353;28;20063;-65
2022/03/23 03:38:32;;;;;;;103.03;41.77;;;;;;;;;;5098668;28;20044;-65
2022/03/23 03:40:59;;;;;;;109.03;43.03;;;;;;;;;;5098548;28;20511;-64
2022/03/23 03:43:25;;;;;;;96.70;45.33;;;;;;;;;;5095596;28;20040;-65
2022/03/23 03:45:52;;;;;;;115.10;46.97;;;;;;;;;;5100052;28;20032;-64
2022/03/23 03:48:18;;;;;;;104.67;43.60;;;;;;;;;;5104102;28;20051;-65
2022/03/23 03:50:44;;;;;;;114.30;46.20;;;;;;;;;;5101886;28;20047;-65
2022/03/23 03:53:10;;;;;;;106.53;44.00;;;;;;;;;;5098692;28;20048;-65
2022/03/23 03:55:37;;;;;;;123.60;47.73;;;;;;;;;;5100605;28;20101;-65
2022/03/23 03:58:03;;;;;;;115.37;46.33;;;;;;;;;;5086210;28;20044;-65
2022/03/23 04:00:30;;;;;;;122.00;48.37;;;;;;;;;;5100784;28;20118;-65
2022/03/23 04:02:57;;;;;;;119.47;50.13;;;;;;;;;;5099544;28;20582;-65
2022/03/23 04:05:23;;;;;;;122.10;47.30;;;;;;;;;;5099052;28;20093;-65
2022/03/23 04:07:49;;;;;;;121.67;47.07;;;;;;;;;;5093083;28;20123;-65
2022/03/23 04:10:15;;;;;;;113.27;44.27;;;;;;;;;;5089888;28;20052;-64
2022/03/23 04:12:41;;;;;;;123.13;50.37;;;;;;;;;;5090384;28;20053;-65
2022/03/23 04:15:07;;;;;;;118.57;47.43;;;;;;;;;;5090849;28;20087;-64
2022/03/23 04:17:34;;;;;;;125.53;49.83;;;;;;;;;;5090359;28;20076;-65
2022/03/23 04:20:00;;;;;;;119.60;46.63;;;;;;;;;;5090843;28;20359;-65
2022/03/23 04:22:26;;;;;;;115.93;45.17;;;;;;;;;;5090425;28;20361;-65
2022/03/23 04:24:52;;;;;;;114.43;44.90;;;;;;;;;;5089922;28;20067;-65
2022/03/23 04:27:18;;;;;;;116.63;44.70;;;;;;;;;;5089953;28;20052;-65
2022/03/23 04:29:44;;;;;;;115.97;44.67;;;;;;;;;;5089856;28;20465;-65
2022/03/23 04:32:10;;;;;;;116.70;46.77;;;;;;;;;;5090342;28;20052;-65
2022/03/23 04:34:37;;;;;;;102.57;42.67;;;;;;;;;;5089411;28;20056;-65
2022/03/23 04:37:03;;;;;;;118.37;44.93;;;;;;;;;;5089908;28;20355;-65
2022/03/23 04:39:29;;;;;;;112.70;44.67;;;;;;;;;;5090009;28;20094;-65
2022/03/23 04:41:55;;;;;;;103.57;46.20;;;;;;;;;;5093086;28;20040;-65
2022/03/23 04:44:21;;;;;;;137.20;50.30;;;;;;;;;;5101909;28;20104;-65
2022/03/23 04:46:48;;;;;;;124.73;47.20;;;;;;;;;;5089327;28;20101;-65
2022/03/23 04:49:14;;;;;;;127.97;46.53;;;;;;;;;;5090321;28;20066;-65
2022/03/23 04:51:40;;;;;;;138.37;48.77;;;;;;;;;;5090210;28;20185;-65
2022/03/23 04:54:06;;;;;;;109.57;43.73;;;;;;;;;;5089795;28;20406;-65
2022/03/23 04:56:32;;;;;;;123.33;46.10;;;;;;;;;;5092638;28;20301;-65
2022/03/23 04:58:59;;;;;;;113.37;46.53;;;;;;;;;;5109786;28;20039;-65
2022/03/23 05:01:25;;;;;;;126.47;49.03;;;;;;;;;;5109691;28;20052;-65
2022/03/23 05:03:52;;;;;;;120.10;47.67;;;;;;;;;;5109724;28;20043;-65
2022/03/23 05:06:18;;;;;;;123.83;48.27;;;;;;;;;;5110000;28;20431;-65
2022/03/23 05:08:45;;;;;;;121.37;50.30;;;;;;;;;;5109813;28;20541;-65
2022/03/23 05:11:11;;;;;;;122.00;51.10;;;;;;;;;;5108959;28;20285;-65
2022/03/23 05:13:37;;;;;;;132.03;51.70;;;;;;;;;;5109607;28;20044;-65
2022/03/23 05:16:03;;;;;;;159.47;56.80;;;;;;;;;;5109648;28;20306;-65
2022/03/23 05:18:30;;;;;;;136.07;51.60;;;;;;;;;;5109175;28;20596;-65
2022/03/23 05:20:56;;;;;;;140.30;51.67;;;;;;;;;;5093952;28;20044;-65
2022/03/23 05:23:22;;;;;;;135.93;52.97;;;;;;;;;;5088383;28;20079;-65
2022/03/23 05:25:48;;;;;;;117.23;50.00;;;;;;;;;;5088964;28;20101;-65
2022/03/23 05:28:14;;;;;;;128.20;52.77;;;;;;;;;;5088987;28;20286;-65
2022/03/23 05:30:40;;;;;;;150.47;53.03;;;;;;;;;;5089323;28;20040;-65
2022/03/23 05:33:06;;;;;;;146.17;54.73;;;;;;;;;;5088980;28;20456;-64
2022/03/23 05:35:32;;;;;;;140.80;52.50;;;;;;;;;;5088158;28;20305;-65
2022/03/23 05:37:59;;;;;;;152.23;56.83;;;;;;;;;;5088708;28;20109;-65
2022/03/23 05:40:25;;;;;;;143.53;54.97;;;;;;;;;;5088278;28;20448;-65
2022/03/23 05:42:51;;;;;;;126.93;50.37;;;;;;;;;;5088659;28;20050;-65
2022/03/23 05:45:18;;;;;;;129.30;49.10;;;;;;;;;;5088757;28;20094;-64
2022/03/23 05:47:44;;;;;;;144.13;52.60;;;;;;;;;;5088620;28;20510;-65
2022/03/23 05:50:11;;;;;;;129.80;51.50;;;;;;;;;;5088193;28;20471;-65
2022/03/23 05:52:37;;;;;;;132.50;51.77;;;;;;;;;;5088343;28;20337;-65
2022/03/23 05:55:05;;;;;;;145.20;54.33;;;;;;;;;;5070618;28;20278;-65
2022/03/23 05:57:31;;;;;;;135.30;55.23;;;;;;;;;;5092367;28;20051;-65
2022/03/23 05:59:57;;;;;;;145.67;53.10;;;;;;;;;;5098753;28;20282;-65
2022/03/23 06:02:23;;;;;;;158.77;55.43;;;;;;;;;;5089432;28;20051;-65
2022/03/23 06:04:49;;;;;;;135.50;54.97;;;;;;;;;;5088958;28;20082;-65
2022/03/23 06:07:15;;;;;;;121.53;49.37;;;;;;;;;;5088626;28;20070;-65
2022/03/23 06:09:41;;;;;;;154.10;54.50;;;;;;;;;;5088154;28;20047;-65
2022/03/23 06:12:12;;;;;;;137.90;53.40;;;;;;;;;;5088338;28;20499;-65
2022/03/23 06:14:42;;;;;;;156.30;57.43;;;;;;;;;;5070315;28;20072;-64
2022/03/23 06:17:08;;;;;;;153.13;57.20;;;;;;;;;;5087765;28;20052;-65
2022/03/23 06:19:34;;;;;;;140.53;53.60;;;;;;;;;;5088181;28;20044;-65
2022/03/23 06:22:00;;;;;;;124.37;49.50;;;;;;;;;;5070171;28;20048;-65
2022/03/23 06:24:26;;;;;;;130.17;52.90;;;;;;;;;;5087893;28;20040;-65
2022/03/23 06:26:52;;;;;;;114.03;45.23;;;;;;;;;;5088193;28;20093;-65
2022/03/23 06:29:18;;;;;;;117.17;49.10;;;;;;;;;;5087394;28;20068;-65
2022/03/23 06:31:44;;;;;;;129.23;54.53;;;;;;;;;;5092119;28;20043;-65
2022/03/23 06:34:10;;;;;;;124.13;52.67;;;;;;;;;;5089072;28;20373;-65
2022/03/23 06:36:36;;;;;;;124.33;49.90;;;;;;;;;;5094677;28;20628;-65
2022/03/23 06:39:03;;;;;;;118.20;51.70;;;;;;;;;;5075030;28;20047;-65
2022/03/23 06:41:29;;;;;;;113.03;47.47;;;;;;;;;;5091780;28;20047;-65
2022/03/23 06:43:55;;;;;;;117.77;50.17;;;;;;;;;;5095834;28;20043;-65
2022/03/23 06:46:21;;;;;;;119.90;51.50;;;;;;;;;;5106065;28;20047;-65
2022/03/23 06:48:47;;;;;;;111.83;49.83;;;;;;;;;;5092788;28;20062;-65
2022/03/23 06:51:14;;;;;;;126.30;51.73;;;;;;;;;;5099518;28;20051;-65
2022/03/23 06:53:40;;;;;;;115.67;53.87;;;;;;;;;;5090685;28;20048;-65
2022/03/23 06:56:06;;;;;;;133.13;52.03;;;;;;;;;;5106082;28;20087;-67
2022/03/23 06:58:32;;;;;;;120.93;53.67;;;;;;;;;;5109500;28;20082;-65
2022/03/23 07:01:00;;;;;;;117.77;52.23;;;;;;;;;;5092218;28;20402;-65
2022/03/23 07:03:26;;;;;;;112.33;50.83;;;;;;;;;;5104643;28;20093;-66
2022/03/23 07:05:52;;;;;;;103.40;47.37;;;;;;;;;;5091955;28;20538;-65
2022/03/23 07:11:03;;;;;;;105.07;45.33;;;;;;;;;;5090935;28;20047;-66
2022/03/23 07:13:29;;;;;;;107.63;46.97;;;;;;;;;;5094975;28;20040;-66
2022/03/23 07:15:55;;;;;;;103.77;47.07;;;;;;;;;;5111404;28;20768;-66
2022/03/23 07:18:21;;;;;;;99.50;47.23;;;;;;;;;;5093275;28;20035;-65
2022/03/23 07:20:47;;;;;;;105.73;51.00;;;;;;;;;;5090160;28;20047;-66
2022/03/23 07:23:13;;;;;;;108.90;48.73;;;;;;;;;;5095545;28;20122;-66
2022/03/23 07:25:39;;;;;;;86.20;44.73;;;;;;;;;;5110083;28;20047;-65
2022/03/23 07:28:06;;;;;;;70.03;41.70;;;;;;;;;;5093084;28;20040;-66
2022/03/23 07:30:37;;;;;;;72.13;43.07;;;;;;;;;;5106075;28;20363;-65
2022/03/23 07:33:04;;;;;;;78.93;44.23;;;;;;;;;;5102306;28;20040;-65
2022/03/23 07:35:30;;;;;;;74.37;40.03;;;;;;;;;;5104390;28;20494;-66
2022/03/23 07:37:56;;;;;;;73.30;41.67;;;;;;;;;;5091084;28;20219;-66
2022/03/23 07:40:22;;;;;;;60.50;37.37;;;;;;;;;;5110422;28;20039;-66
2022/03/23 07:42:48;;;;;;;63.70;38.40;;;;;;;;;;5092668;28;20056;-66
2022/03/23 07:45:14;;;;;;;53.37;34.23;;;;;;;;;;5098222;28;20122;-66
2022/03/23 07:47:41;;;;;;;62.93;35.73;;;;;;;;;;5109966;28;20597;-66
2022/03/23 07:50:07;;;;;;;57.77;34.80;;;;;;;;;;5101120;28;20073;-66
2022/03/23 07:52:33;;;;;;;55.90;35.90;;;;;;;;;;5109780;28;20036;-66
2022/03/23 07:55:00;;;;;;;54.30;33.47;;;;;;;;;;5110695;28;20123;-66
2022/03/23 07:57:26;;;;;;;58.40;34.10;;;;;;;;;;5101951;28;20052;-65
2022/03/23 07:59:55;;;;;;;48.50;32.30;;;;;;;;;;5091625;28;20055;-65
2022/03/23 08:02:21;;;;;;;51.50;31.03;;;;;;;;;;5094779;28;20055;-66
2022/03/23 08:04:47;;;;;;;48.23;32.97;;;;;;;;;;5097127;28;20410;-65
2022/03/23 08:07:13;;;;;;;48.73;30.73;;;;;;;;;;5098793;28;20040;-65
2022/03/23 08:09:39;;;;;;;45.80;29.43;;;;;;;;;;5107122;28;20063;-66
2022/03/23 08:12:05;;;;;;;49.03;32.07;;;;;;;;;;5102707;28;20123;-66
2022/03/23 08:14:31;;;;;;;43.03;28.77;;;;;;;;;;5089531;28;20044;-66
2022/03/23 08:16:57;;;;;;;46.10;27.40;;;;;;;;;;5089730;28;20451;-66
2022/03/23 08:19:23;;;;;;;40.27;27.63;;;;;;;;;;5095790;28;20118;-66
2022/03/23 08:21:52;;;;;;;41.90;26.87;;;;;;;;;;5090367;28;20074;-66
2022/03/23 08:24:19;;;;;;;38.07;26.53;;;;;;;;;;5093589;28;20047;-66
2022/03/23 08:26:45;;;;;;;39.13;24.80;;;;;;;;;;5093725;28;20063;-66
2022/03/23 08:29:11;;;;;;;36.70;22.20;;;;;;;;;;5099925;28;20040;-66
2022/03/23 08:31:37;;;;;;;41.27;23.70;;;;;;;;;;5095680;28;20040;-66
2022/03/23 08:34:04;;;;;;;32.33;21.43;;;;;;;;;;5109885;28;20059;-65
2022/03/23 08:36:31;;;;;;;26.63;19.23;;;;;;;;;;5100183;28;20060;-65
2022/03/23 08:38:57;;;;;;;24.37;18.77;;;;;;;;;;5091434;28;20059;-65
2022/03/23 08:41:23;;;;;;;30.73;19.60;;;;;;;;;;5076278;28;20048;-65
2022/03/23 08:43:49;;;;;;;25.30;17.40;;;;;;;;;;5093049;28;20046;-65
2022/03/23 08:46:15;;;;;;;23.83;17.97;;;;;;;;;;5093123;28;20048;-65
2022/03/23 08:48:42;;;;;;;25.67;17.37;;;;;;;;;;5088806;28;20093;-65
2022/03/23 08:51:08;;;;;;;24.97;17.40;;;;;;;;;;5103483;28;20864;-65
2022/03/23 08:53:34;;;;;;;28.47;17.00;;;;;;;;;;5103979;28;20035;-66
2022/03/23 08:56:00;;;;;;;24.00;16.97;;;;;;;;;;5103129;28;20737;-65
2022/03/23 08:58:26;;;;;;;23.33;15.57;;;;;;;;;;5088889;28;20544;-65
2022/03/23 09:00:52;;;;;;;24.27;16.17;;;;;;;;;;5087733;28;20051;-65
2022/03/23 09:03:18;;;;;;;23.07;15.33;;;;;;;;;;5097654;28;20050;-65
2022/03/23 09:05:44;;;;;;;23.93;14.87;;;;;;;;;;5088127;28;20043;-66
2022/03/23 09:08:11;;;;;;;19.23;15.23;;;;;;;;;;5089201;28;20089;-66
2022/03/23 09:10:37;;;;;;;26.17;13.93;;;;;;;;;;5089014;28;20506;-66
2022/03/23 09:13:03;;;;;;;20.23;14.47;;;;;;;;;;5089212;28;20071;-65
2022/03/23 09:15:30;;;;;;;21.07;14.23;;;;;;;;;;5088927;28;20399;-64
2022/03/23 09:17:59;;;;;;;21.37;13.90;;;;;;;;;;5101661;28;20147;-64
2022/03/23 09:20:28;;;;;;;21.73;13.40;;;;;;;;;;5096246;28;20054;-64
2022/03/23 09:22:54;;;;;;;20.63;13.63;;;;;;;;;;5093947;28;20506;-65
2022/03/23 09:25:22;;;;;;;18.23;13.43;;;;;;;;;;5089333;28;20078;-64
2022/03/23 09:27:48;;;;;;;16.90;12.37;;;;;;;;;;5088617;28;20101;-65
2022/03/23 09:30:15;;;;;;;20.20;12.30;;;;;;;;;;5102512;28;20459;-64
2022/03/23 09:32:42;;;;;;;17.13;12.13;;;;;;;;;;5109455;28;20050;-64
2022/03/23 09:35:08;;;;;;;17.80;12.83;;;;;;;;;;5109385;28;20138;-65
2022/03/23 09:37:50;;;;;;;15.40;11.47;;;;;;;;;;5108806;28;20047;-65
2022/03/23 09:40:24;;;;;;;20.53;14.50;;;;;;;;;;5108824;28;20090;-65
2022/03/23 09:42:50;;;;;;;19.50;12.03;;;;;;;;;;5108983;28;20134;-65
2022/03/23 09:45:31;;;;;;;18.87;12.80;;;;;;;;;;5109206;28;20123;-65
2022/03/23 09:47:58;;;;;;;16.33;11.77;;;;;;;;;;5109494;28;20497;-65
2022/03/23 09:50:32;;;;;;;15.23;12.83;;;;;;;;;;5108859;28;20513;-65
2022/03/23 09:52:58;;;;;;;16.27;13.40;;;;;;;;;;5109151;28;20101;-65
2022/03/23 09:55:25;;;;;;;19.67;13.63;;;;;;;;;;5090079;28;20055;-65
2022/03/23 09:57:54;;;;;;;16.53;12.93;;;;;;;;;;5088755;28;20127;-65
2022/03/23 10:00:20;;;;;;;18.73;12.90;;;;;;;;;;5088186;28;20531;-65
2022/03/23 10:02:58;;;;;;;14.87;12.70;;;;;;;;;;5092617;28;20048;-65
2022/03/23 10:05:43;;;;;;;19.57;12.13;;;;;;;;;;5088305;28;20125;-65
2022/03/23 10:08:29;;;;;;;14.00;11.90;;;;;;;;;;5094050;28;20127;-65
2022/03/23 10:11:13;;;;;;;16.30;12.53;;;;;;;;;;5092746;28;20047;-65
2022/03/23 10:13:48;;;;;;;15.27;11.77;;;;;;;;;;5092010;28;20131;-65
2022/03/23 10:16:20;;;;;;;14.73;11.47;;;;;;;;;;5092328;28;20497;-65
2022/03/23 10:18:50;;;;;;;14.05;11.23;;;;;;;;;;5092086;28;20057;-65
2022/03/23 10:21:17;;;;;;;14.23;12.57;;;;;;;;;;5092184;28;20040;-65
2022/03/23 10:24:01;;;;;;;15.93;12.43;;;;;;;;;;5091910;28;20390;-65
2022/03/23 10:26:28;;;;;;;14.13;11.93;;;;;;;;;;5092225;28;20449;-65
2022/03/23 10:28:54;;;;;;;15.03;11.30;;;;;;;;;;5091933;28;20048;-64
2022/03/23 10:31:21;;;;;;;13.60;12.20;;;;;;;;;;5092125;28;20101;-65
2022/03/23 10:33:57;;;;;;;14.63;12.20;;;;;;;;;;5091961;28;20044;-65
2022/03/23 10:36:24;;;;;;;14.70;11.83;;;;;;;;;;5091817;28;21147;-65
2022/03/23 10:38:50;;;;;;;18.00;12.50;;;;;;;;;;5090680;28;20046;-65
2022/03/23 10:41:25;;;;;;;15.43;12.63;;;;;;;;;;5091886;28;20040;-65
2022/03/23 10:43:51;;;;;;;18.43;11.30;;;;;;;;;;5091781;28;20137;-65
2022/03/23 10:46:17;;;;;;;14.87;12.07;;;;;;;;;;5092096;28;20040;-65
2022/03/23 10:48:51;;;;;;;15.47;11.20;;;;;;;;;;5092077;28;20055;-65
2022/03/23 10:51:26;;;;;;;13.37;11.63;;;;;;;;;;5091447;28;20600;-67
2022/03/23 10:53:52;;;;;;;14.67;11.67;;;;;;;;;;5091501;28;20052;-65
2022/03/23 10:56:28;;;;;;;17.93;12.70;;;;;;;;;;5091522;28;20510;-65
2022/03/23 10:59:14;;;;;;;15.90;12.20;;;;;;;;;;5091712;28;20460;-65
2022/03/23 11:01:57;;;;;;;16.70;11.53;;;;;;;;;;5090799;28;20054;-65
2022/03/23 11:04:24;;;;;;;15.77;11.53;;;;;;;;;;5092236;28;20573;-65
2022/03/23 11:06:50;;;;;;;16.00;11.00;;;;;;;;;;5102652;28;20050;-65
2022/03/23 11:18:05;;;;;;;14.70;12.43;;;;;;;;;;5101314;28;20056;-65
2022/03/23 11:20:39;;;;;;;16.50;10.90;;;;;;;;;;5100145;28;20047;-65
2022/03/23 11:23:16;;;;;;;15.95;10.77;;;;;;;;;;5101132;28;20871;-65
2022/03/23 11:25:43;;;;;;;14.95;11.45;;;;;;;;;;5099247;28;20047;-66
2022/03/23 11:28:09;;;;;;;16.20;11.93;;;;;;;;;;5099778;28;20051;-65
2022/03/23 11:30:37;;;;;;;17.10;12.20;;;;;;;;;;5099100;28;20085;-65
2022/03/23 11:33:04;;;;;;;18.60;12.00;;;;;;;;;;5098184;28;20091;-65
2022/03/23 11:35:30;;;;;;;17.15;11.10;;;;;;;;;;5098598;28;20509;-65
2022/03/23 11:37:57;;;;;;;15.00;11.00;;;;;;;;;;5099077;28;20751;-65
2022/03/23 11:40:23;;;;;;;19.10;11.27;;;;;;;;;;5097631;28;20089;-66
2022/03/23 11:42:49;;;;;;;15.85;12.25;;;;;;;;;;5099425;28;20042;-65
2022/03/23 11:45:16;;;;;;;16.40;10.82;;;;;;;;;;5100819;28;20078;-65
2022/03/23 11:47:58;;;;;;;16.40;10.77;;;;;;;;;;5100964;28;20043;-65
2022/03/23 11:50:33;;;;;;;17.07;9.40;;;;;;;;;;5099962;28;20070;-66
2022/03/23 11:53:08;;;;;;;15.48;8.90;;;;;;;;;;5098784;28;20301;-66
2022/03/23 11:55:40;;;;;;;20.25;9.50;;;;;;;;;;5098524;28;20551;-66
2022/03/23 11:58:21;;;;;;;15.93;9.20;;;;;;;;;;5099440;28;20052;-66
2022/03/23 12:00:55;;;;;;;21.52;10.90;;;;;;;;;;5100203;28;20040;-66
2022/03/23 12:03:40;;;;;;;15.05;9.20;;;;;;;;;;5097259;28;20815;-66
2022/03/23 12:06:09;;;;;;;16.60;9.07;;;;;;;;;;5100514;28;20123;-66
2022/03/23 12:08:48;;;;;;;19.25;10.40;;;;;;;;;;5100396;28;20043;-66
2022/03/23 12:11:33;;;;;;;21.63;10.98;;;;;;;;;;5098337;28;20032;-66
2022/03/23 12:13:59;;;;;;;16.38;10.98;;;;;;;;;;5101024;28;20047;-66
2022/03/23 12:16:44;;;;;;;15.43;9.55;;;;;;;;;;5098699;28;20048;-66
2022/03/23 12:19:10;;;;;;;19.05;10.75;;;;;;;;;;5100655;28;20059;-66
2022/03/23 12:21:55;;;;;;;17.65;11.32;;;;;;;;;;5097206;28;20044;-66
2022/03/23 12:24:47;;;;;;;16.05;11.60;;;;;;;;;;5094906;28;20050;-66
2022/03/23 12:27:19;;;;;;;15.73;10.87;;;;;;;;;;5095137;28;20047;-66
2022/03/23 12:29:46;;;;;;;17.63;11.02;;;;;;;;;;5096935;28;20296;-66
2022/03/23 12:32:14;;;;;;;16.08;10.52;;;;;;;;;;5094093;28;21270;-66
2022/03/23 12:34:41;;;;;;;18.67;10.55;;;;;;;;;;5098570;28;20402;-66
2022/03/23 12:37:08;;;;;;;16.98;10.77;;;;;;;;;;5109244;28;20394;-66
2022/03/23 12:39:41;;;;;;;16.40;10.70;;;;;;;;;;5108640;28;20047;-66
2022/03/23 12:42:15;;;;;;;19.70;10.27;;;;;;;;;;5101677;28;20140;-66
2022/03/23 12:44:42;;;;;;;16.48;9.93;;;;;;;;;;5109959;28;20055;-66
2022/03/23 12:47:09;;;;;;;16.77;10.30;;;;;;;;;;5107304;28;20043;-66
2022/03/23 12:58:09;;;;;;;17.77;7.25;;;;;;;;;;5100188;28;20130;-66
2022/03/23 13:00:40;;;;;;;15.80;6.65;;;;;;;;;;5094380;28;20046;-66
2022/03/23 13:03:06;;;;;;;17.05;7.18;;;;;;;;;;5108547;28;20043;-66
2022/03/23 13:05:36;;;;;;;23.38;7.63;;;;;;;;;;5108950;28;20072;-66
2022/03/23 13:08:23;;;;;;;23.27;7.63;;;;;;;;;;5109373;28;20036;-66
2022/03/23 13:10:58;;;;;;;19.23;8.10;;;;;;;;;;5109014;28;20058;-66
2022/03/23 13:13:24;;;;;;;14.63;7.43;;;;;;;;;;5105512;28;20139;-66
2022/03/23 13:15:50;;;;;;;17.77;7.40;;;;;;;;;;5088708;28;20047;-66
2022/03/23 13:18:17;;;;;;;21.25;8.50;;;;;;;;;;5088821;28;20075;-66
2022/03/23 13:20:50;;;;;;;21.88;8.40;;;;;;;;;;5088393;28;20498;-66
2022/03/23 13:23:17;;;;;;;17.30;7.50;;;;;;;;;;5088942;28;20055;-66
2022/03/23 13:25:47;;;;;;;25.80;7.32;;;;;;;;;;5088637;28;20040;-66
2022/03/23 13:28:14;;;;;;;20.63;8.05;;;;;;;;;;5088906;28;20541;-66
2022/03/23 13:30:42;;;;;;;23.05;8.02;;;;;;;;;;5088420;28;20080;-66
2022/03/23 13:33:09;;;;;;;18.95;7.53;;;;;;;;;;5088726;28;20081;-66
2022/03/23 13:35:42;;;;;;;20.00;8.25;;;;;;;;;;5088745;28;20048;-66
2022/03/23 13:38:09;;;;;;;18.15;8.45;;;;;;;;;;5088493;28;20052;-66
2022/03/23 13:43:23;;;;;;;20.00;7.82;;;;;;;;;;5087942;28;20060;-66
2022/03/23 13:45:50;;;;;;;18.35;7.93;;;;;;;;;;5088976;28;20036;-66
2022/03/23 13:48:16;;;;;;;19.77;7.82;;;;;;;;;;5088458;28;20040;-66
2022/03/23 13:50:43;;;;;;;14.55;7.38;;;;;;;;;;5088070;28;20389;-66
2022/03/23 13:53:09;;;;;;;19.70;8.32;;;;;;;;;;5088685;28;20042;-66
2022/03/23 13:55:35;;;;;;;14.02;7.53;;;;;;;;;;5088332;28;20075;-66
2022/03/23 13:58:01;;;;;;;21.17;9.00;;;;;;;;;;5088345;28;20051;-66
2022/03/23 14:00:29;;;;;;;22.95;7.40;;;;;;;;;;5088871;28;20068;-66
2022/03/23 14:02:55;;;;;;;18.33;8.70;;;;;;;;;;5100430;28;20040;-66
2022/03/23 14:05:21;;;;;;;19.55;8.73;;;;;;;;;;5108927;28;20070;-66
2022/03/23 14:07:51;;;;;;;19.90;8.15;;;;;;;;;;5108767;28;20305;-66
2022/03/23 14:10:17;;;;;;;13.18;7.25;;;;;;;;;;5108617;28;20039;-66
2022/03/23 14:12:48;;;;;;;17.73;7.78;;;;;;;;;;5108639;28;20485;-66
2022/03/23 14:15:14;;;;;;;12.23;7.53;;;;;;;;;;5100849;28;20039;-67
2022/03/23 14:17:41;;;;;;;13.13;7.88;;;;;;;;;;5108203;28;20566;-66
2022/03/23 14:20:08;;;;;;;22.02;8.00;;;;;;;;;;5108369;28;20051;-66
2022/03/23 14:22:35;;;;;;;17.15;7.65;;;;;;;;;;5108015;28;20048;-66
2022/03/23 14:25:03;;;;;;;19.13;7.88;;;;;;;;;;5108762;28;20047;-66
2022/03/23 14:27:32;;;;;;;17.88;7.00;;;;;;;;;;5108550;28;20048;-66
2022/03/23 14:30:07;;;;;;;18.58;6.55;;;;;;;;;;5094869;28;20501;-66
2022/03/23 14:32:47;;;;;;;19.98;8.00;;;;;;;;;;5106496;28;20052;-66
2022/03/23 14:35:24;;;;;;;19.27;7.70;;;;;;;;;;5108078;28;20055;-66
2022/03/23 14:37:51;;;;;;;17.75;7.22;;;;;;;;;;5108365;28;20048;-67
2022/03/23 14:40:31;;;;;;;14.77;6.28;;;;;;;;;;5108494;28;20039;-66
2022/03/23 14:43:02;;;;;;;20.80;6.32;;;;;;;;;;5094689;28;20052;-66
2022/03/23 14:45:32;;;;;;;17.88;6.28;;;;;;;;;;5088094;28;20036;-66
2022/03/23 14:48:15;;;;;;;14.82;5.95;;;;;;;;;;5087704;28;20036;-66
2022/03/23 14:50:41;;;;;;;19.80;6.90;;;;;;;;;;5088036;28;20083;-66